^^
Saratoga-Weather Station Historical Data
Daily Summary for January 13, 2018 Units:  Metric    English   Both
Daily Weekly Monthly Yearly Custom
  High: Low: Average:
Temperature: 14.8 °C -8.7 °C 2.2 °C
Dew Point: 14.4 °C -13.1 °C -0.9 °C
Humidity: 98% 63% 80%
Wind Speed: 25.4km/h 0km/h 9.2km/h
Wind Gust: 46.3km/h - -
Wind- - West
Pressure: 1025.3 hPa 989.7 hPa -
Precipitation: 5.08 mm    
Historical Graphs
 
 
Tabular Data for January 13, 2018
Time Temperature Dew Point Pressure Wind Wind Speed Wind Gust Humidity Rainfall Rate (Hourly) solar
00:01 12.8 °C 12.4 °C 997.9 hPa West 1.4 km/h 3.7 km/h 97% 0.76 mm 0.0 W/m2
00:11 12.8 °C 12.3 °C 997.5 hPa West 0.5 km/h 1.9 km/h 97% 1.02 mm 0.0 W/m2
00:18 12.8 °C 12.3 °C 997.2 hPa Calm     97% 0.76 mm 0.0 W/m2
00:24 12.7 °C 12.3 °C 997.2 hPa SSW 1.1 km/h 3.7 km/h 97% 1.02 mm 0.0 W/m2
00:31 12.7 °C 12.3 °C 997.2 hPa SSW 0.8 km/h 1.9 km/h 97% 1.02 mm 0.0 W/m2
00:46 13.3 °C 12.9 °C 996.5 hPa SSE 4.8 km/h 6.4 km/h 98% 1.02 mm 0.0 W/m2
00:53 13.7 °C 13.4 °C 996.5 hPa SW 6 km/h 14.8 km/h 98% 0.76 mm 0.0 W/m2
01:03 13.9 °C 13.6 °C 996.2 hPa SSW 7.2 km/h 9.7 km/h 98% 1.02 mm 0.0 W/m2
01:20 14.3 °C 14 °C 996.2 hPa SSE 5.6 km/h 16.1 km/h 98% 1.02 mm 0.0 W/m2
01:27 14.7 °C 14.4 °C 996.2 hPa SE 10.6 km/h 16.1 km/h 98% 0.76 mm 0.0 W/m2
01:34 14.8 °C 14.4 °C 996.5 hPa SW 14.6 km/h 22.2 km/h 98% 0.76 mm 0.0 W/m2
01:43 14.8 °C 14.4 °C 996.2 hPa SSW 7.9 km/h 11.1 km/h 98% 0.51 mm 0.0 W/m2
02:01 14.7 °C 14.3 °C 996.2 hPa SSW 8.5 km/h 18.5 km/h 98% 0.51 mm 0.0 W/m2
02:13 14.6 °C 14.1 °C 996.2 hPa SSE 7.9 km/h 11.1 km/h 97% 0.51 mm 0.0 W/m2
02:27 14.6 °C 14.1 °C 995.8 hPa SSE 8.2 km/h 11.3 km/h 97% 0.51 mm 0.0 W/m2
02:35 14.6 °C 14.2 °C 995.5 hPa SSE 12.9 km/h 14.5 km/h 98% 0.51 mm 0.0 W/m2
02:52 14.4 °C 14 °C 994.8 hPa SSE 6.1 km/h 13 km/h 97% 0.25 mm 0.0 W/m2
02:58 14.4 °C 14 °C 994.8 hPa SE 8.2 km/h 14.8 km/h 97% 0.25 mm 0.0 W/m2
03:05 14.4 °C 13.9 °C 994.5 hPa SE 5.6 km/h 6.4 km/h 97% 0.25 mm 0.0 W/m2
03:12 14.4 °C 14 °C 993.8 hPa SE 6.3 km/h 9.3 km/h 97% 0.25 mm 0.0 W/m2
03:17 14.4 °C 13.9 °C 993.8 hPa SSE 7.7 km/h 16.7 km/h 97% 0.51 mm 0.0 W/m2
03:32 14.2 °C 13.8 °C 993.5 hPa SSE 8 km/h 8 km/h 97% 0.25 mm 0.0 W/m2
03:41 14.2 °C 13.8 °C 993.5 hPa ESE 8.4 km/h 16.7 km/h 97% 0.25 mm 0.0 W/m2
03:57 14.2 °C 13.8 °C 993.1 hPa South 4.5 km/h 9.3 km/h 97% 0.25 mm 0.0 W/m2
04:17 14.2 °C 13.7 °C 992.1 hPa ESE 7.4 km/h 11.3 km/h 97% 0.25 mm 0.0 W/m2
04:24 14.2 °C 13.7 °C 991.1 hPa SE 4 km/h 11.3 km/h 97% 0.25 mm 0.0 W/m2
04:31 14.1 °C 13.7 °C 991.8 hPa ESE 12.4 km/h 14.8 km/h 97% 0.51 mm 0.0 W/m2
04:36 14.1 °C 13.6 °C 991.8 hPa SSE 11.3 km/h 16.1 km/h 97% 0.51 mm 0.0 W/m2
04:45 14.1 °C 13.7 °C 991.1 hPa South 6.4 km/h 11.1 km/h 97% 0.51 mm 0.0 W/m2
04:51 14.2 °C 13.7 °C 990.1 hPa SE 8.5 km/h 18.5 km/h 97% 0.76 mm 0.0 W/m2
05:15 14.4 °C 14.1 °C 989.7 hPa SE 16.6 km/h 22.2 km/h 98% 0.76 mm 0.0 W/m2
05:22 14.6 °C 14.1 °C 989.7 hPa SSE 12.1 km/h 18.5 km/h 97% 0.76 mm 0.0 W/m2
05:43 14.6 °C 14.2 °C 990.4 hPa South 25.4 km/h 33.3 km/h 97% 0.76 mm 0.0 W/m2
05:52 14.4 °C 13.9 °C 990.4 hPa SW 19.8 km/h 35.2 km/h 97% 0.51 mm 0.0 W/m2
05:59 14.2 °C 13.8 °C 991.1 hPa South 18.2 km/h 33.3 km/h 97% 0.51 mm 0.0 W/m2
06:20 13.4 °C 12.8 °C 991.1 hPa South 21.4 km/h 35.2 km/h 96% 0.25 mm 0.0 W/m2
06:35 12.9 °C 12.3 °C 991.4 hPa SE 18.8 km/h 37 km/h 96% 0.51 mm 0.0 W/m2
06:51 12.5 °C 11.9 °C 992.1 hPa South 24.9 km/h 42.6 km/h 96% 0.25 mm 0.0 W/m2
06:59 12.3 °C 11.6 °C 992.1 hPa SSE 19 km/h 46.3 km/h 95% 0.25 mm 0.0 W/m2
07:07 12.2 °C 11.4 °C 992.1 hPa SE 13.5 km/h 20.4 km/h 95% 0.25 mm 0.0 W/m2
07:13 12.1 °C 11.3 °C 992.4 hPa SW 11.1 km/h 20.4 km/h 95% 0.51 mm 0.0 W/m2
07:22 11.9 °C 11.1 °C 992.8 hPa SSW 13.5 km/h 22.5 km/h 95% 0.25 mm 0.0 W/m2
07:27 11.8 °C 11.1 °C 993.1 hPa SSE 16.3 km/h 25.9 km/h 95% 0.25 mm 0.0 W/m2
07:32 11.7 °C 10.9 °C 993.5 hPa SW 14 km/h 16.7 km/h 95% 0.25 mm 0.0 W/m2
07:38 11.6 °C 10.8 °C 993.8 hPa South 13.7 km/h 29.6 km/h 95% 0.25 mm 0.0 W/m2
07:55 7.7 °C 6.3 °C 995.8 hPa SW 17.9 km/h 20.4 km/h 91% 0.25 mm 0.0 W/m2
08:02 6.6 °C 5.2 °C 996.5 hPa WNW 6.8 km/h 14.8 km/h 91% 0.25 mm 5.0 W/m2
08:10 5.5 °C 4.2 °C 997.2 hPa West 5.6 km/h 18.5 km/h 91% 0 mm 7.0 W/m2
08:16 5.2 °C 4.1 °C 997.5 hPa WNW 5 km/h 9.3 km/h 92% 0 mm 9.0 W/m2
08:33 3.8 °C 2.2 °C 998.9 hPa West 8.2 km/h 19.3 km/h 89% 0 mm 40.0 W/m2
08:38 3.1 °C 1.3 °C 999.2 hPa NNW 10.6 km/h 20.4 km/h 88% 0.25 mm 60.0 W/m2
08:46 2.6 °C 0.6 °C 1000.2 hPa West 14.8 km/h 29.6 km/h 87% 0.25 mm 63.0 W/m2
08:53 1.7 °C -0.7 °C 1000.6 hPa NNW 12.1 km/h 18.5 km/h 84% 0.25 mm 84.0 W/m2
08:59 1.3 °C -1.1 °C 1000.9 hPa West 9 km/h 16.7 km/h 84% 0.25 mm 62.0 W/m2
09:14 0.7 °C -2 °C 1001.9 hPa NW 13.7 km/h 31.5 km/h 82% 0.25 mm 130.0 W/m2
09:21 0.7 °C -1.9 °C 1002.3 hPa WNW 7.4 km/h 20.4 km/h 83% 0.25 mm 116.0 W/m2
09:27 0.7 °C -2.1 °C 1002.6 hPa NNW 9.8 km/h 16.7 km/h 82% 0.25 mm 97.0 W/m2
09:37 0.3 °C -2.6 °C 1003.3 hPa NW 11.1 km/h 16.7 km/h 81% 0.25 mm 125.0 W/m2
09:42 0.2 °C -2.7 °C 1003.3 hPa NNW 13.8 km/h 22.2 km/h 81% 0 mm 135.0 W/m2
09:50 -0.1 °C -3.1 °C 1003.6 hPa NNW 7.1 km/h 11.1 km/h 80% 0 mm 149.0 W/m2
10:00 0.1 °C -2.8 °C 1003.9 hPa NNW 4.5 km/h 16.7 km/h 81% 0 mm 148.0 W/m2
10:14 0.1 °C -3.6 °C 1005 hPa NW 8.5 km/h 14.8 km/h 76% 0 mm 262.0 W/m2
10:24 0.2 °C -3.7 °C 1005.3 hPa WNW 7.1 km/h 9.3 km/h 75% 0 mm 302.0 W/m2
10:31 0.3 °C -4.2 °C 1005.6 hPa WNW 14 km/h 27.8 km/h 72% 0.25 mm 185.0 W/m2
10:39 0.2 °C -4.1 °C 1005.6 hPa NW 11.3 km/h 16.1 km/h 73% 0.25 mm 258.0 W/m2
10:56 0.2 °C -4.7 °C 1006 hPa NW 9.8 km/h 22.2 km/h 70% 0.25 mm 232.0 W/m2
11:02 0.2 °C -4.3 °C 1006.3 hPa NW 10.6 km/h 16.7 km/h 72% 0.25 mm 223.0 W/m2
11:11 0.1 °C -4.8 °C 1006.7 hPa WNW 11.9 km/h 18.5 km/h 70% 0.25 mm 374.0 W/m2
11:22 -0.1 °C -4.9 °C 1006.7 hPa NW 10.1 km/h 16.7 km/h 70% 0.25 mm 387.0 W/m2
11:28 -0.1 °C -4.7 °C 1006.7 hPa NW 7.6 km/h 16.1 km/h 71% 0.25 mm 411.0 W/m2
11:34 0 °C -4.8 °C 1007 hPa NNW 11.6 km/h 16.1 km/h 70% 0 mm 448.0 W/m2
11:40 -0.1 °C -4.9 °C 1007 hPa West 13.5 km/h 18.5 km/h 70% 0 mm 452.0 W/m2
11:46 -0.2 °C -5.1 °C 1007 hPa WNW 6.4 km/h 22.2 km/h 70% 0 mm 457.0 W/m2
11:55 -0.2 °C -5.2 °C 1007 hPa NW 14.2 km/h 22.2 km/h 69% 0 mm 459.0 W/m2
12:10 -0.3 °C -5.5 °C 1007.3 hPa NW 6.3 km/h 16.7 km/h 68% 0.25 mm 461.0 W/m2
12:18 -0.3 °C -5.2 °C 1007.3 hPa NW 9.2 km/h 13 km/h 70% 0.25 mm 462.0 W/m2
12:47 0.1 °C -5.3 °C 1008 hPa NNW 10 km/h 16.7 km/h 67% 0.25 mm 455.0 W/m2
12:59 -0.1 °C -5.4 °C 1008 hPa NNW 10.1 km/h 18.5 km/h 67% 0.25 mm 450.0 W/m2
13:07 -0.3 °C -6.1 °C 1008.4 hPa WNW 10.6 km/h 31.5 km/h 65% 0.25 mm 443.0 W/m2
13:13 -0.6 °C -6.2 °C 1008.4 hPa WSW 11.7 km/h 20.4 km/h 66% 0 mm 439.0 W/m2
13:27 -0.6 °C -6.2 °C 1009 hPa West 5.6 km/h 9.7 km/h 66% 0 mm 364.0 W/m2
13:35 -1.1 °C -6.8 °C 1009.4 hPa WSW 12.6 km/h 20.4 km/h 65% 0 mm 355.0 W/m2
13:44 -1.1 °C -6.7 °C 1009.7 hPa NNW 11.3 km/h 18.5 km/h 66% 0 mm 353.0 W/m2
14:11 -0.7 °C -6.5 °C 1010.4 hPa West 9.8 km/h 18.5 km/h 65% 0 mm 251.0 W/m2
14:19 -0.9 °C -6.7 °C 1010.7 hPa NNW 6.6 km/h 16.7 km/h 65% 0 mm 163.0 W/m2
14:34 -0.6 °C -6.6 °C 1011.4 hPa NW 6.1 km/h 13 km/h 64% 0 mm 105.0 W/m2
14:41 -0.6 °C -6.8 °C 1011.7 hPa West 8.5 km/h 8.5 km/h 63% 0 mm 56.0 W/m2
14:46 -0.7 °C -6.7 °C 1011.7 hPa WNW 6.3 km/h 14.5 km/h 64% 0.25 mm 53.0 W/m2
14:51 -0.9 °C -6.8 °C 1012.1 hPa West 5.5 km/h 13 km/h 64% 0.25 mm 91.0 W/m2
15:16 -2 °C -7.9 °C 1013.1 hPa West 13.4 km/h 18.5 km/h 64% 0.25 mm 123.0 W/m2
15:22 -2.1 °C -7.8 °C 1013.1 hPa WSW 3.2 km/h 16.7 km/h 65% 0.25 mm 109.0 W/m2
15:30 -1.8 °C -7.3 °C 1013.8 hPa NNW 6.1 km/h 14.8 km/h 66% 0.25 mm 128.0 W/m2
15:46 -2.2 °C -7.9 °C 1014.1 hPa WNW 8.2 km/h 14.8 km/h 65% 0 mm 90.0 W/m2
15:58 -2.4 °C -8.3 °C 1014.4 hPa WNW 17.2 km/h 25.9 km/h 64% 0 mm 58.0 W/m2
16:07 -2.8 °C -8.5 °C 1014.4 hPa NW 12.2 km/h 18.5 km/h 65% 0 mm 51.0 W/m2
16:20 -3.2 °C -8.7 °C 1015.5 hPa WNW 10.5 km/h 13 km/h 66% 0 mm 23.0 W/m2
16:26 -3.3 °C -8.8 °C 1015.5 hPa WNW 9 km/h 18.5 km/h 66% 0 mm 16.0 W/m2
16:34 -3.7 °C -9.2 °C 1015.5 hPa WNW 5.8 km/h 18.5 km/h 66% 0 mm 9.0 W/m2
16:52 -4.1 °C -9.2 °C 1016.1 hPa NNW 10.8 km/h 18.5 km/h 68% 0 mm 0.0 W/m2
16:58 -4.2 °C -9.3 °C 1016.5 hPa West 7.4 km/h 13 km/h 68% 0 mm 0.0 W/m2
17:04 -4.3 °C -9.2 °C 1016.5 hPa WNW 9.5 km/h 18.5 km/h 69% 0 mm 0.0 W/m2
17:10 -4.4 °C -9.3 °C 1016.8 hPa WNW 6.9 km/h 9.3 km/h 69% 0.25 mm 0.0 W/m2
17:16 -4.5 °C -9.2 °C 1017.2 hPa NNW 6.6 km/h 8 km/h 70% 0.25 mm 0.0 W/m2
17:28 -4.7 °C -9.6 °C 1017.5 hPa NNW 5.8 km/h 16.7 km/h 69% 0.25 mm 0.0 W/m2
17:33 -4.8 °C -9.6 °C 1017.5 hPa NNW 14 km/h 18.5 km/h 69% 0.25 mm 0.0 W/m2
17:38 -4.8 °C -9.4 °C 1017.5 hPa WNW 11.1 km/h 20.9 km/h 70% 0.25 mm 0.0 W/m2
17:44 -4.9 °C -9.5 °C 1017.8 hPa WNW 13.2 km/h 18.5 km/h 70% 0.25 mm 0.0 W/m2
17:51 -4.9 °C -9.6 °C 1017.8 hPa NNW 5.5 km/h 7.4 km/h 70% 0.25 mm 0.0 W/m2
18:09 -5.2 °C -9.8 °C 1018.5 hPa NNW 8 km/h 14.8 km/h 70% 0 mm 0.0 W/m2
18:24 -5.4 °C -10 °C 1018.8 hPa NNW 9.2 km/h 14.8 km/h 70% 0 mm 0.0 W/m2
18:31 -5.5 °C -10.1 °C 1019.2 hPa NNW 9.7 km/h 13 km/h 70% 0 mm 0.0 W/m2
18:38 -5.6 °C -10 °C 1019.2 hPa NW 8.7 km/h 16.7 km/h 71% 0 mm 0.0 W/m2
18:50 -5.7 °C -10.1 °C 1019.2 hPa NW 6.3 km/h 13 km/h 71% 0 mm 0.0 W/m2
18:59 -5.7 °C -9.9 °C 1019.5 hPa North 4.8 km/h 11.1 km/h 72% 0 mm 0.0 W/m2
19:18 -5.8 °C -10.1 °C 1019.9 hPa West 5.3 km/h 7.4 km/h 72% 0 mm 0.0 W/m2
19:24 -5.9 °C -10.2 °C 1020.2 hPa NW 4.2 km/h 5.6 km/h 72% 0 mm 0.0 W/m2
19:32 -6.1 °C -10.3 °C 1020.5 hPa NNW 5.5 km/h 9.3 km/h 72% 0 mm 0.0 W/m2
19:55 -6.4 °C -10.6 °C 1020.9 hPa NNW 7.6 km/h 9.3 km/h 72% 0 mm 0.0 W/m2
20:03 -6.5 °C -10.9 °C 1021.2 hPa North 7.1 km/h 13 km/h 71% 0 mm 0.0 W/m2
20:08 -6.5 °C -10.9 °C 1021.2 hPa NW 5.3 km/h 7.4 km/h 71% 0 mm 0.0 W/m2
20:13 -6.6 °C -11 °C 1021.2 hPa NNW 5.3 km/h 13 km/h 71% 0 mm 0.0 W/m2
20:20 -6.7 °C -10.9 °C 1021.6 hPa NNW 5.6 km/h 7.4 km/h 72% 0 mm 0.0 W/m2
20:27 -6.8 °C -11 °C 1021.6 hPa NW 6.8 km/h 13 km/h 72% 0 mm 0.0 W/m2
20:34 -6.9 °C -11.3 °C 1021.6 hPa North 8.2 km/h 11.1 km/h 71% 0 mm 0.0 W/m2
20:41 -7 °C -11.4 °C 1021.9 hPa NW 7.2 km/h 14.8 km/h 71% 0 mm 0.0 W/m2
20:59 -7.2 °C -11.4 °C 1022.2 hPa NW 6.3 km/h 9.3 km/h 72% 0 mm 0.0 W/m2
21:07 -7.3 °C -11.7 °C 1022.2 hPa NNW 7.1 km/h 11.1 km/h 71% 0 mm 0.0 W/m2
21:19 -7.4 °C -11.8 °C 1022.6 hPa NNW 8.7 km/h 14.8 km/h 71% 0 mm 0.0 W/m2
21:29 -7.5 °C -11.7 °C 1022.6 hPa West 5.1 km/h 6.4 km/h 72% 0 mm 0.0 W/m2
21:38 -7.6 °C -11.7 °C 1022.9 hPa NNW 7.6 km/h 14.8 km/h 72% 0 mm 0.0 W/m2
21:43 -7.6 °C -11.8 °C 1022.9 hPa North 8 km/h 8 km/h 72% 0 mm 0.0 W/m2
21:55 -7.8 °C -12.1 °C 1023.2 hPa NNW 10 km/h 14.8 km/h 71% 0 mm 0.0 W/m2
22:00 -7.8 °C -12.2 °C 1023.2 hPa North 5 km/h 8 km/h 71% 0 mm 0.0 W/m2
22:05 -7.8 °C -12 °C 1023.6 hPa West 6.4 km/h 14.5 km/h 72% 0 mm 0.0 W/m2
22:21 -8 °C -12.3 °C 1023.9 hPa NW 5.3 km/h 13 km/h 71% 0 mm 0.0 W/m2
22:26 -8.1 °C -12.2 °C 1023.9 hPa NW 7.2 km/h 9.7 km/h 72% 0 mm 0.0 W/m2
22:41 -8.2 °C -12.5 °C 1023.9 hPa WNW 7.6 km/h 14.8 km/h 71% 0 mm 0.0 W/m2
22:46 -8.3 °C -12.6 °C 1023.9 hPa NNW 7.6 km/h 12.9 km/h 71% 0 mm 0.0 W/m2
22:55 -8.3 °C -12.5 °C 1024.3 hPa West 8.2 km/h 12.9 km/h 72% 0 mm 0.0 W/m2
23:08 -8.4 °C -12.6 °C 1024.6 hPa NNW 11.1 km/h 16.7 km/h 72% 0 mm 0.0 W/m2
23:15 -8.5 °C -12.8 °C 1024.9 hPa West 6.1 km/h 9.7 km/h 71% 0 mm 0.0 W/m2
23:22 -8.6 °C -12.9 °C 1024.9 hPa NNE 10.6 km/h 14.5 km/h 71% 0 mm 0.0 W/m2
23:29 -8.6 °C -12.9 °C 1024.9 hPa NW 7.6 km/h 9.3 km/h 71% 0 mm 0.0 W/m2
23:38 -8.7 °C -13.1 °C 1025.3 hPa NNW 6.8 km/h 13 km/h 71% 0 mm 0.0 W/m2
Juneau County Weather
Compliments of Weather Underground - 2.25 mb